createdAt,value
2023-01-19T05:04:45.725Z,98669.09
2023-01-19T05:07:49.074Z,98678.75
2023-01-19T05:10:51.838Z,98696.84
2023-01-19T05:13:54.673Z,98700.09
2023-01-19T05:16:57.308Z,98692.84
2023-01-19T05:20:00.195Z,98681.38
2023-01-19T05:23:03.178Z,98689.75
2023-01-19T05:26:06.421Z,98701.50
2023-01-19T05:29:10.247Z,98717.41
2023-01-19T05:32:13.753Z,98713.94
2023-01-19T05:35:20.120Z,98720.81
2023-01-19T05:38:35.387Z,98718.34
2023-01-19T05:41:38.436Z,98718.25
2023-01-19T05:44:41.276Z,98721.88
2023-01-19T05:47:43.843Z,98715.84
2023-01-19T05:50:49.627Z,98710.50
2023-01-19T05:53:52.240Z,98697.44
2023-01-19T05:56:55.073Z,98692.00
2023-01-19T05:59:57.581Z,98700.97
2023-01-19T06:03:02.529Z,98688.53
2023-01-19T06:06:05.911Z,98665.00
2023-01-19T06:09:08.982Z,98678.44
2023-01-19T06:12:11.890Z,98679.16
2023-01-19T06:15:15.493Z,98680.19
2023-01-19T06:18:18.697Z,98669.88
2023-01-19T06:21:21.521Z,98657.00
2023-01-19T06:24:25.320Z,98677.78
2023-01-19T06:27:28.002Z,98677.25
2023-01-19T06:30:31.008Z,98658.31
2023-01-19T06:33:33.527Z,98653.81
2023-01-19T06:36:36.781Z,98657.97
2023-01-19T06:39:41.083Z,98671.09
2023-01-19T06:42:44.080Z,98688.38
2023-01-19T06:45:47.340Z,98698.75
2023-01-19T06:48:50.258Z,98710.94
2023-01-19T06:51:52.960Z,98716.00
2023-01-19T06:54:55.703Z,98708.06
2023-01-19T06:57:59.675Z,98708.41
2023-01-19T07:01:07.227Z,98696.00
2023-01-19T07:04:14.044Z,98702.81
2023-01-19T07:07:16.921Z,98692.44
2023-01-19T07:10:19.585Z,98700.28
2023-01-19T07:13:22.479Z,98688.25
2023-01-19T07:16:25.399Z,98682.97
2023-01-19T07:19:28.977Z,98678.78
2023-01-19T07:22:31.482Z,98675.25
2023-01-19T07:25:34.749Z,98684.69
2023-01-19T07:28:37.594Z,98712.87
2023-01-19T07:31:40.519Z,98712.66
2023-01-19T07:34:43.234Z,98721.56
2023-01-19T07:37:46.095Z,98721.53
2023-01-19T07:40:48.719Z,98718.66
2023-01-19T07:43:52.776Z,98710.66
2023-01-19T07:46:55.362Z,98721.63
2023-01-19T07:49:58.303Z,98722.38
2023-01-19T07:53:08.727Z,98707.28
2023-01-19T07:56:11.835Z,98726.81
2023-01-19T07:59:14.886Z,98723.41
2023-01-19T08:02:17.769Z,98730.81
2023-01-19T08:05:21.181Z,98725.47
2023-01-19T08:08:23.699Z,98738.53
2023-01-19T08:11:26.795Z,98716.59
2023-01-19T08:14:29.389Z,98727.41
2023-01-19T08:17:32.265Z,98720.78
2023-01-19T08:20:35.668Z,98710.78
2023-01-19T08:23:38.591Z,98711.75
2023-01-19T08:26:41.203Z,98707.09
2023-01-19T08:29:44.136Z,98713.44
2023-01-19T08:32:46.865Z,98706.69
2023-01-19T08:35:52.909Z,98706.06
2023-01-19T08:38:55.614Z,98718.19
2023-01-19T08:42:00.651Z,98718.19
2023-01-19T08:45:03.228Z,98721.91
2023-01-19T08:48:06.455Z,98733.41
2023-01-19T08:51:09.321Z,98721.50
2023-01-19T08:54:12.696Z,98729.94
2023-01-19T08:57:15.435Z,98738.97
2023-01-19T09:00:19.130Z,98731.13
2023-01-19T09:03:22.916Z,98727.47
2023-01-19T09:06:26.191Z,98723.75
2023-01-19T09:09:28.844Z,98727.34
2023-01-19T09:12:32.944Z,98722.88
2023-01-19T09:15:37.776Z,98717.78
2023-01-19T09:18:41.464Z,98714.97
2023-01-19T09:21:44.012Z,98716.84
2023-01-19T09:24:46.876Z,98716.59
2023-01-19T09:27:49.405Z,98738.00
2023-01-19T09:30:52.563Z,98732.75
2023-01-19T09:33:55.187Z,98726.25
2023-01-19T09:36:58.188Z,98712.53
2023-01-19T09:40:01.063Z,98725.97
2023-01-19T09:43:16.995Z,98720.56
2023-01-19T09:46:24.469Z,98731.34
2023-01-19T09:49:38.536Z,98723.38
2023-01-19T09:52:50.429Z,98715.06
2023-01-19T09:55:53.427Z,98715.34
2023-01-19T09:58:56.112Z,98716.59
2023-01-19T10:02:06.326Z,98726.41
2023-01-19T10:05:20.536Z,98727.53
2023-01-19T10:08:41.767Z,98721.31
2023-01-19T10:11:57.493Z,98732.91
2023-01-19T10:15:06.937Z,98736.13
2023-01-19T10:18:48.302Z,98733.69
2023-01-19T10:21:51.592Z,98737.28
2023-01-19T10:25:01.774Z,98742.41
2023-01-19T10:28:04.805Z,98749.28
2023-01-19T10:31:09.840Z,98740.03
2023-01-19T10:34:21.537Z,98742.25
2023-01-19T10:37:33.397Z,98735.75
2023-01-19T10:40:52.277Z,98740.25
2023-01-19T10:44:04.259Z,98748.41
2023-01-19T10:47:17.775Z,98756.19
2023-01-19T10:50:25.305Z,98765.94
2023-01-19T10:53:28.223Z,98764.22
2023-01-19T10:56:35.017Z,98762.28
2023-01-19T10:59:47.919Z,98758.13
2023-01-19T11:02:51.438Z,98767.03
2023-01-19T11:05:54.049Z,98761.56
2023-01-19T11:09:18.612Z,98764.59
2023-01-19T11:12:23.799Z,98770.22
2023-01-19T11:15:35.886Z,98763.19
2023-01-19T11:18:40.263Z,98760.81
2023-01-19T11:21:43.688Z,98760.75
2023-01-19T11:24:46.304Z,98768.25
2023-01-19T11:27:52.132Z,98769.72
2023-01-19T11:31:03.670Z,98759.78
2023-01-19T11:34:37.459Z,98758.66
2023-01-19T11:37:42.888Z,98757.56
2023-01-19T11:40:58.062Z,98760.09
2023-01-19T11:44:15.074Z,98775.75
2023-01-19T11:47:38.346Z,98766.31
2023-01-19T11:50:46.006Z,98776.63
2023-01-19T11:53:52.761Z,98766.56
2023-01-19T11:56:59.390Z,98773.09
2023-01-19T12:00:17.495Z,98776.19
2023-01-19T12:03:39.099Z,98784.19
2023-01-19T12:06:51.953Z,98782.41
2023-01-19T12:10:00.314Z,98790.91
2023-01-19T12:13:03.852Z,98796.72
2023-01-19T12:16:12.175Z,98799.00
2023-01-19T12:19:18.570Z,98803.31
2023-01-19T12:22:23.849Z,98806.59
2023-01-19T12:25:54.762Z,98809.50
2023-01-19T12:29:03.906Z,98814.88
2023-01-19T12:32:18.643Z,98815.75
2023-01-19T12:36:10.326Z,98833.97
2023-01-19T12:39:19.022Z,98833.09
2023-01-19T12:42:22.846Z,98829.31
2023-01-19T12:45:31.571Z,98830.53
2023-01-19T12:48:41.987Z,98834.63
2023-01-19T12:51:45.831Z,98844.19
2023-01-19T12:55:00.605Z,98844.81
2023-01-19T12:58:03.159Z,98845.28
2023-01-19T13:01:21.176Z,98851.44
2023-01-19T13:04:32.260Z,98858.44
2023-01-19T13:08:06.319Z,98846.03
2023-01-19T13:11:17.689Z,98870.72
2023-01-19T13:14:37.683Z,98870.22
2023-01-19T13:17:47.560Z,98887.47
2023-01-19T13:21:04.860Z,98893.78
2023-01-19T13:24:10.556Z,98905.63
2023-01-19T13:27:13.837Z,98907.41
2023-01-19T13:30:19.487Z,98908.16
2023-01-19T13:33:25.699Z,98913.47
2023-01-19T13:36:36.607Z,98927.00
2023-01-19T13:39:44.230Z,98930.22
2023-01-19T13:42:48.105Z,98934.63
2023-01-19T13:45:54.199Z,98944.19
2023-01-19T13:49:19.966Z,98941.56
2023-01-19T13:52:24.075Z,98947.81
2023-01-19T13:55:29.037Z,98964.09
2023-01-19T13:58:32.416Z,98964.69
2023-01-19T14:01:35.444Z,98964.81
2023-01-19T14:04:38.534Z,98979.31
2023-01-19T14:07:41.252Z,98980.97
2023-01-19T14:10:54.279Z,98977.53
2023-01-19T14:13:56.835Z,98980.75
2023-01-19T14:16:59.701Z,98973.16
2023-01-19T14:20:05.500Z,98976.44
2023-01-19T14:23:37.905Z,98974.13
2023-01-19T14:26:42.971Z,98951.91
2023-01-19T14:29:47.550Z,98950.41
2023-01-19T14:32:50.091Z,98959.78
2023-01-19T14:35:52.903Z,98966.19
2023-01-19T14:39:01.080Z,98977.38
2023-01-19T14:42:06.771Z,98991.31
2023-01-19T14:45:21.577Z,98994.06
2023-01-19T14:48:25.784Z,98993.34
2023-01-19T14:51:30.067Z,98998.38
2023-01-19T14:54:40.568Z,99000.47
2023-01-19T14:57:43.145Z,99014.47
2023-01-19T15:00:47.184Z,99014.72
2023-01-19T15:03:50.005Z,99020.06
2023-01-19T15:06:52.790Z,99032.97
2023-01-19T15:09:55.385Z,99047.91
2023-01-19T15:12:59.999Z,99061.34
2023-01-19T15:16:03.826Z,99071.69
2023-01-19T15:19:09.199Z,99084.50
2023-01-19T15:22:13.403Z,99079.03
2023-01-19T15:25:19.302Z,99076.25
2023-01-19T15:28:21.858Z,99068.19
2023-01-19T15:31:26.363Z,99056.72
2023-01-19T15:34:28.930Z,99071.94
2023-01-19T15:37:33.014Z,99077.00
2023-01-19T15:40:35.719Z,99075.91
2023-01-19T15:43:38.459Z,99086.69
2023-01-19T15:46:41.089Z,99097.53
2023-01-19T15:49:43.978Z,99084.63
2023-01-19T15:52:46.814Z,99080.88
2023-01-19T15:55:55.462Z,99097.56
2023-01-19T15:58:59.087Z,99115.84
2023-01-19T16:02:02.783Z,99115.63
2023-01-19T16:05:06.906Z,99120.94
2023-01-19T16:08:10.896Z,99122.84
2023-01-19T16:11:15.742Z,99147.19
2023-01-19T16:14:18.449Z,99151.34
2023-01-19T16:17:21.244Z,99139.91
2023-01-19T16:20:23.819Z,99155.69
2023-01-19T16:23:26.813Z,99165.03
2023-01-19T16:26:33.696Z,99179.22
2023-01-19T16:29:36.441Z,99182.97
2023-01-19T16:32:39.084Z,99172.94
2023-01-19T16:35:42.053Z,99199.09
2023-01-19T16:38:44.699Z,99202.56
